Main page
METAR-TAF:

METAR-TAF

Airports :

Muş Airport

Muş, Turkey

latitude: 38-45N, longitude: 041-40E, elevation: 1266 m

Current weather observation

The report was made 58 minutes ago, at 16:50 UTC
Wind 5 kt from the East/Southeast, varying between East and Southwest
Temperature 24°C
Humidity 27%
Pressure 1013 hPa
Visibility 10 km or more
Few clouds at a height of 4000 ft

METAR: LTCK 221650Z 11005KT 090V220 9999 FEW040 24/04 Q1013

Time: 20:48 (17:48 UTC)

Forecast

The report was made 4 hours and 8 minutes ago, at 13:40 UTC
Forecast valid from 22 at 15 UTC to 22 at 24 UTC
Wind 10 kt from the South
Visibility 10 km or more
Few clouds at a height of 4000 ft
Becoming
from 22 at 16 UTC to 22 at 18 UTC
Wind 5 kt from the East
Visibility 10 km or more
no clouds below 1500 m and no cumulonimbus

TAF: LTCK 221340Z 2215/2224 17010KT 9999 FEW040 BECMG 2216/2218 09005KT CAVOK

Weather observations and forecasts of more than 4000 airports (METAR and TAF reports).

The available stations are represented by yellow and red dots on the map.

Hover mouse over dot to see the name of the station.

Then click to see weather observations and forecasts.

To change the map : click on the green buttons with a black cross to zoom in, on the green button with a dash to zoom out, or on the green arrows for adjacent maps.


METAR-TAF: